Time;durP1;ratioP1;P1;durP2;ratioP2;P2;SDS_P1;SDS_P2;PMS_P1;PMS_P2;Temp;Humidity;BMP_temperature;BMP_pressure;BME280_temperature;BME280_humidity;BME280_pressure;Samples;Min_cycle;Max_cycle;Signal;HPM_P1;HPM_P2
2022/08/26 00:00:02;;;;;;;;;;;20.80;99.90;;;;;;5083104;28;19920;-70
2022/08/26 00:02:29;;;;;;;;;;;20.80;99.90;;;;;;5082726;28;19924;-70
2022/08/26 00:04:56;;;;;;;;;;;20.80;99.90;;;;;;5082289;28;19921;-70
2022/08/26 00:07:22;;;;;;;;;;;20.70;99.90;;;;;;5083430;28;19921;-70
2022/08/26 00:09:49;;;;;;;;;;;20.80;99.90;;;;;;5080665;28;19924;-70
2022/08/26 00:12:15;;;;;;;;;;;20.70;99.90;;;;;;5082981;28;19927;-70
2022/08/26 00:14:43;;;;;;;;;;;20.70;99.90;;;;;;5082179;28;19956;-70
2022/08/26 00:17:10;;;;;;;;;;;20.70;99.90;;;;;;5082822;28;19963;-70
2022/08/26 00:19:37;;;;;;;;;;;20.60;99.90;;;;;;5082647;28;19921;-71
2022/08/26 00:22:04;;;;;;;;;;;20.60;99.90;;;;;;5082965;28;19988;-70
2022/08/26 00:24:31;;;;;;;;;;;20.60;99.90;;;;;;5081983;28;19952;-70
2022/08/26 00:26:58;;;;;;;;;;;20.60;99.90;;;;;;5083085;28;19926;-70
2022/08/26 00:29:24;;;;;;;;;;;20.50;99.90;;;;;;5082928;28;19952;-70
2022/08/26 00:31:52;;;;;;;;;;;20.50;99.90;;;;;;5086383;28;19975;-70
2022/08/26 00:34:19;;;;;;;;;;;20.50;99.90;;;;;;5085587;28;20276;-70
2022/08/26 00:36:46;;;;;;;;;;;20.40;99.90;;;;;;5086156;28;19956;-70
2022/08/26 00:39:13;;;;;;;;;;;20.40;99.90;;;;;;5086535;28;19999;-70
2022/08/26 00:41:40;;;;;;;;;;;20.40;99.90;;;;;;5086086;28;19928;-70
2022/08/26 00:44:07;;;;;;;;;;;20.40;99.90;;;;;;5085396;28;19927;-70
2022/08/26 00:46:36;;;;;;;;;;;20.40;99.90;;;;;;5085788;28;19983;-70
2022/08/26 00:49:07;;;;;;;;;;;20.30;99.90;;;;;;5085946;28;19963;-70
2022/08/26 00:51:39;;;;;;;;;;;20.30;99.90;;;;;;5086070;28;19951;-70
2022/08/26 00:54:08;;;;;;;;;;;20.20;99.90;;;;;;5085603;28;19962;-70
2022/08/26 00:56:37;;;;;;;;;;;20.20;99.90;;;;;;5085864;28;19921;-70
2022/08/26 00:59:06;;;;;;;;;;;20.20;99.90;;;;;;5085799;28;19920;-70
2022/08/26 01:01:33;;;;;;;;;;;20.20;99.90;;;;;;5085989;28;19921;-70
2022/08/26 01:04:00;;;;;;;;;;;20.10;99.90;;;;;;5085274;28;19983;-71
2022/08/26 01:06:28;;;;;;;;;;;20.10;99.90;;;;;;5085781;28;19964;-70
2022/08/26 01:08:55;;;;;;;;;;;20.10;99.90;;;;;;5083080;28;19983;-70
2022/08/26 01:11:22;;;;;;;;;;;20.00;99.90;;;;;;5085646;28;19924;-70
2022/08/26 01:13:51;;;;;;;;;;;20.00;99.90;;;;;;5084900;28;19927;-70
2022/08/26 01:16:17;;;;;;;;;;;20.00;99.90;;;;;;5085315;28;19927;-70
2022/08/26 01:18:45;;;;;;;;;;;19.90;99.90;;;;;;5085549;28;19921;-70
2022/08/26 01:21:16;;;;;;;;;;;19.90;99.90;;;;;;5085398;28;19920;-71
2022/08/26 01:23:45;;;;;;;;;;;19.90;99.90;;;;;;5084696;28;19959;-70
2022/08/26 01:26:14;;;;;;;;;;;19.90;99.90;;;;;;5085082;28;19955;-70
2022/08/26 01:28:41;;;;;;;;;;;19.80;99.90;;;;;;5085379;28;19955;-70
2022/08/26 01:31:11;;;;;;;;;;;19.80;99.90;;;;;;5085177;28;20256;-70
2022/08/26 01:33:40;;;;;;;;;;;19.80;99.90;;;;;;5084556;28;19927;-70
2022/08/26 01:36:07;;;;;;;;;;;19.70;99.90;;;;;;5085048;28;19936;-70
2022/08/26 01:38:34;;;;;;;;;;;19.70;99.90;;;;;;5084866;28;19984;-70
2022/08/26 01:41:03;;;;;;;;;;;19.80;99.90;;;;;;5084501;28;19971;-70
2022/08/26 01:43:32;;;;;;;;;;;19.70;99.90;;;;;;5083955;28;20116;-70
2022/08/26 01:45:59;;;;;;;;;;;19.70;99.90;;;;;;5084804;28;19962;-70
2022/08/26 01:48:27;;;;;;;;;;;19.70;99.90;;;;;;5084930;28;19927;-70
2022/08/26 01:50:54;;;;;;;;;;;19.70;99.90;;;;;;5084835;28;19983;-70
2022/08/26 01:53:21;;;;;;;;;;;19.60;99.90;;;;;;5084076;28;19962;-70
2022/08/26 01:55:50;;;;;;;;;;;19.60;99.90;;;;;;5084810;28;19921;-70
2022/08/26 01:58:20;;;;;;;;;;;19.50;99.90;;;;;;5084977;28;19984;-70
2022/08/26 02:00:47;;;;;;;;;;;19.50;99.90;;;;;;5084515;28;19980;-70
2022/08/26 02:03:17;;;;;;;;;;;19.50;99.90;;;;;;5083850;28;19962;-69
2022/08/26 02:05:44;;;;;;;;;;;19.50;99.90;;;;;;5084284;28;19956;-70
2022/08/26 02:08:11;;;;;;;;;;;19.40;99.90;;;;;;5083455;28;19935;-70
2022/08/26 02:10:38;;;;;;;;;;;19.40;99.90;;;;;;5083855;28;19984;-70
2022/08/26 02:13:06;;;;;;;;;;;19.30;99.90;;;;;;5083989;28;19928;-69
2022/08/26 02:15:34;;;;;;;;;;;19.30;99.90;;;;;;5084380;28;19956;-71
2022/08/26 02:18:02;;;;;;;;;;;19.30;99.90;;;;;;5084322;28;19963;-70
2022/08/26 02:20:29;;;;;;;;;;;19.30;99.90;;;;;;5084046;28;19920;-71
2022/08/26 02:22:56;;;;;;;;;;;19.30;99.90;;;;;;5083327;28;20272;-70
2022/08/26 02:25:25;;;;;;;;;;;19.30;99.90;;;;;;5084010;28;19920;-70
2022/08/26 02:27:52;;;;;;;;;;;19.30;99.90;;;;;;5084148;28;20262;-70
2022/08/26 02:30:20;;;;;;;;;;;19.30;99.90;;;;;;5083978;28;19920;-71
2022/08/26 02:32:50;;;;;;;;;;;19.30;99.90;;;;;;5083280;28;19980;-71
2022/08/26 02:35:19;;;;;;;;;;;19.20;99.90;;;;;;5083681;28;19935;-70
2022/08/26 02:37:45;;;;;;;;;;;19.20;99.90;;;;;;5084177;28;19924;-70
2022/08/26 02:40:13;;;;;;;;;;;19.20;99.90;;;;;;5083972;28;19943;-70
2022/08/26 02:42:40;;;;;;;;;;;19.10;99.90;;;;;;5083330;28;19991;-71
2022/08/26 02:45:08;;;;;;;;;;;19.10;99.90;;;;;;5083562;28;19980;-70
2022/08/26 02:47:35;;;;;;;;;;;19.00;99.90;;;;;;5083734;28;19921;-70
2022/08/26 02:50:03;;;;;;;;;;;19.00;99.90;;;;;;5083882;28;19924;-70
2022/08/26 02:52:30;;;;;;;;;;;18.90;99.90;;;;;;5083606;28;19952;-70
2022/08/26 02:54:57;;;;;;;;;;;18.90;99.90;;;;;;5082279;28;20204;-70
2022/08/26 02:57:23;;;;;;;;;;;18.90;99.90;;;;;;5083783;28;19920;-70
2022/08/26 02:59:50;;;;;;;;;;;18.90;99.90;;;;;;5083567;28;19974;-70
2022/08/26 03:02:16;;;;;;;;;;;18.90;99.90;;;;;;5083689;28;19995;-70
2022/08/26 03:04:43;;;;;;;;;;;18.90;99.90;;;;;;5082976;28;19963;-70
2022/08/26 03:07:11;;;;;;;;;;;18.80;99.90;;;;;;5083625;28;19958;-70
2022/08/26 03:09:39;;;;;;;;;;;18.80;99.90;;;;;;5081168;28;19983;-70
2022/08/26 03:12:06;;;;;;;;;;;18.70;99.90;;;;;;5083551;28;19928;-70
2022/08/26 03:14:32;;;;;;;;;;;18.70;99.90;;;;;;5082716;28;19983;-70
2022/08/26 03:16:59;;;;;;;;;;;18.70;99.90;;;;;;5083297;28;19963;-70
2022/08/26 03:19:26;;;;;;;;;;;18.70;99.90;;;;;;5083474;28;20187;-70
2022/08/26 03:21:53;;;;;;;;;;;18.70;99.90;;;;;;5083217;28;20263;-70
2022/08/26 03:24:21;;;;;;;;;;;18.70;99.90;;;;;;5082905;28;19983;-70
2022/08/26 03:26:48;;;;;;;;;;;18.70;99.90;;;;;;5083065;28;20255;-70
2022/08/26 03:32:00;;;;;;;;;;;18.70;99.90;;;;;;5083354;28;19988;-70
2022/08/26 03:34:27;;;;;;;;;;;18.70;99.90;;;;;;5082666;28;19921;-70
2022/08/26 03:36:54;;;;;;;;;;;18.60;99.90;;;;;;5083112;28;20204;-71
2022/08/26 03:39:22;;;;;;;;;;;18.70;99.90;;;;;;5083074;28;19947;-69
2022/08/26 03:41:48;;;;;;;;;;;18.60;99.90;;;;;;5082877;28;19947;-70
2022/08/26 03:44:15;;;;;;;;;;;18.60;99.90;;;;;;5082249;28;20204;-70
2022/08/26 03:46:42;;;;;;;;;;;18.60;99.90;;;;;;5080654;28;19992;-70
2022/08/26 03:49:08;;;;;;;;;;;18.60;99.90;;;;;;5083163;28;19991;-70
2022/08/26 03:51:36;;;;;;;;;;;18.50;99.90;;;;;;5081002;28;19920;-70
2022/08/26 03:54:02;;;;;;;;;;;18.50;99.90;;;;;;5082405;28;19924;-71
2022/08/26 03:56:32;;;;;;;;;;;18.50;99.90;;;;;;5082864;28;19959;-70
2022/08/26 03:58:58;;;;;;;;;;;18.50;99.90;;;;;;5083123;28;19920;-70
2022/08/26 04:01:25;;;;;;;;;;;18.50;99.90;;;;;;5083112;28;20203;-70
2022/08/26 04:03:57;;;;;;;;;;;18.50;99.90;;;;;;5082238;28;20258;-69
2022/08/26 04:06:24;;;;;;;;;;;18.40;99.90;;;;;;5086327;28;19920;-70
2022/08/26 04:08:51;;;;;;;;;;;18.40;99.90;;;;;;5086857;28;20254;-70
2022/08/26 04:11:19;;;;;;;;;;;18.40;99.90;;;;;;5086818;28;19959;-70
2022/08/26 04:13:47;;;;;;;;;;;18.40;99.90;;;;;;5086754;28;20111;-70
2022/08/26 04:16:14;;;;;;;;;;;18.30;99.90;;;;;;5086489;28;19987;-70
2022/08/26 04:18:41;;;;;;;;;;;18.30;99.90;;;;;;5086506;28;19921;-70
2022/08/26 04:21:08;;;;;;;;;;;18.20;99.90;;;;;;5086404;28;19983;-70
2022/08/26 04:23:35;;;;;;;;;;;18.20;99.90;;;;;;5085817;28;19991;-70
2022/08/26 04:26:01;;;;;;;;;;;18.20;99.90;;;;;;5086358;28;20175;-70
2022/08/26 04:28:28;;;;;;;;;;;18.20;99.90;;;;;;5086279;28;19962;-71
2022/08/26 04:30:56;;;;;;;;;;;18.20;99.90;;;;;;5086371;28;19984;-70
2022/08/26 04:33:23;;;;;;;;;;;18.10;99.90;;;;;;5085757;28;20148;-70
2022/08/26 04:35:50;;;;;;;;;;;18.20;99.90;;;;;;5086071;28;19921;-70
2022/08/26 04:38:18;;;;;;;;;;;18.10;99.90;;;;;;5086315;28;20230;-70
2022/08/26 04:40:45;;;;;;;;;;;18.00;99.90;;;;;;5086067;28;19921;-69
2022/08/26 04:43:12;;;;;;;;;;;18.00;99.90;;;;;;5085331;28;20340;-70
2022/08/26 04:45:40;;;;;;;;;;;18.00;99.90;;;;;;5086128;28;19921;-70
2022/08/26 04:48:08;;;;;;;;;;;17.90;99.90;;;;;;5086015;28;20200;-71
2022/08/26 04:50:35;;;;;;;;;;;17.90;99.90;;;;;;5085781;28;19959;-70
2022/08/26 04:53:03;;;;;;;;;;;17.90;99.90;;;;;;5085529;28;19920;-69
2022/08/26 04:55:29;;;;;;;;;;;17.90;99.90;;;;;;5085740;28;19927;-70
2022/08/26 04:57:56;;;;;;;;;;;17.80;99.90;;;;;;5085787;28;19927;-69
2022/08/26 05:00:23;;;;;;;;;;;17.80;99.90;;;;;;5085891;28;19921;-69
2022/08/26 05:02:50;;;;;;;;;;;17.80;99.90;;;;;;5085120;28;19955;-70
2022/08/26 05:05:18;;;;;;;;;;;17.80;99.90;;;;;;5082278;28;20179;-70
2022/08/26 05:07:45;;;;;;;;;;;17.90;99.90;;;;;;5085950;28;19959;-70
2022/08/26 05:10:11;;;;;;;;;;;17.90;99.90;;;;;;5085435;28;19921;-69
2022/08/26 05:12:38;;;;;;;;;;;17.90;99.90;;;;;;5085234;28;19959;-69
2022/08/26 05:15:05;;;;;;;;;;;17.90;99.90;;;;;;5083752;28;19970;-69
2022/08/26 05:17:32;;;;;;;;;;;18.00;99.90;;;;;;5084319;28;19959;-69
2022/08/26 05:19:59;;;;;;;;;;;18.00;99.90;;;;;;5085278;28;20212;-69
2022/08/26 05:22:27;;;;;;;;;;;18.00;99.90;;;;;;5085330;28;19959;-69
2022/08/26 05:24:53;;;;;;;;;;;18.00;99.90;;;;;;5084880;28;20122;-69
2022/08/26 05:27:20;;;;;;;;;;;18.10;99.90;;;;;;5085398;28;20179;-69
2022/08/26 05:29:47;;;;;;;;;;;18.10;99.90;;;;;;5085131;28;20127;-69
2022/08/26 05:32:14;;;;;;;;;;;18.20;99.90;;;;;;5085135;28;20116;-69
2022/08/26 05:34:40;;;;;;;;;;;18.20;99.90;;;;;;5084674;28;19920;-69
2022/08/26 05:37:07;;;;;;;;;;;18.20;99.90;;;;;;5085491;28;20145;-69
2022/08/26 05:39:35;;;;;;;;;;;18.20;99.90;;;;;;5085160;28;19920;-69
2022/08/26 05:42:02;;;;;;;;;;;18.20;99.90;;;;;;5085103;28;19983;-70
2022/08/26 05:44:29;;;;;;;;;;;18.20;99.90;;;;;;5084280;28;19921;-70
2022/08/26 05:46:56;;;;;;;;;;;18.30;99.90;;;;;;5082482;28;19983;-71
2022/08/26 05:49:22;;;;;;;;;;;18.30;99.90;;;;;;5084790;28;19988;-70
2022/08/26 05:51:49;;;;;;;;;;;18.40;99.90;;;;;;5084950;28;19956;-70
2022/08/26 05:54:16;;;;;;;;;;;18.40;99.90;;;;;;5084278;28;19920;-70
2022/08/26 05:56:44;;;;;;;;;;;18.40;99.90;;;;;;5084792;28;19920;-70
2022/08/26 05:59:12;;;;;;;;;;;18.50;99.90;;;;;;5084574;28;19921;-71
2022/08/26 06:01:39;;;;;;;;;;;18.50;99.90;;;;;;5084852;28;19983;-71
2022/08/26 06:04:06;;;;;;;;;;;18.50;99.90;;;;;;5082775;28;19973;-69
2022/08/26 06:06:34;;;;;;;;;;;18.60;99.90;;;;;;5084512;28;19920;-70
2022/08/26 06:09:02;;;;;;;;;;;18.60;99.90;;;;;;5082143;28;20251;-70
2022/08/26 06:11:31;;;;;;;;;;;18.60;99.90;;;;;;5084363;28;19982;-70
2022/08/26 06:14:01;;;;;;;;;;;18.60;99.90;;;;;;5084206;28;19921;-70
2022/08/26 06:16:28;;;;;;;;;;;18.70;99.90;;;;;;5082410;28;19921;-70
2022/08/26 06:18:55;;;;;;;;;;;18.80;99.90;;;;;;5084501;28;19927;-70
2022/08/26 06:21:23;;;;;;;;;;;18.80;99.90;;;;;;5084364;28;19956;-70
2022/08/26 06:26:35;;;;;;;;;;;18.90;99.90;;;;;;5084166;28;19962;-70
2022/08/26 06:29:03;;;;;;;;;;;19.00;99.90;;;;;;5084010;28;19962;-69
2022/08/26 06:31:31;;;;;;;;;;;19.10;99.90;;;;;;5083891;28;20263;-69
2022/08/26 06:33:58;;;;;;;;;;;19.10;99.90;;;;;;5083668;28;19958;-70
2022/08/26 06:36:26;;;;;;;;;;;19.30;99.90;;;;;;5083650;28;19993;-69
2022/08/26 06:38:55;;;;;;;;;;;19.40;99.90;;;;;;5083974;28;20187;-69
2022/08/26 06:41:23;;;;;;;;;;;19.40;99.90;;;;;;5084054;28;19920;-69
2022/08/26 06:43:51;;;;;;;;;;;19.50;99.90;;;;;;5081852;28;19927;-70
2022/08/26 06:46:27;;;;;;;;;;;19.60;99.90;;;;;;5080107;28;19921;-70
2022/08/26 06:48:54;;;;;;;;;;;19.60;99.90;;;;;;5075231;28;19947;-70
2022/08/26 06:51:22;;;;;;;;;;;19.70;99.90;;;;;;5083696;28;19952;-70
2022/08/26 06:53:50;;;;;;;;;;;19.80;99.90;;;;;;5066732;28;19984;-70
2022/08/26 06:56:17;;;;;;;;;;;19.90;99.90;;;;;;5063871;28;19956;-70
2022/08/26 06:58:44;;;;;;;;;;;20.00;99.90;;;;;;5063745;28;19928;-70
2022/08/26 07:01:15;;;;;;;;;;;20.00;99.90;;;;;;5070635;28;19955;-70
2022/08/26 07:03:42;;;;;;;;;;;20.20;99.90;;;;;;5083195;28;20115;-69
2022/08/26 07:06:09;;;;;;;;;;;20.20;99.90;;;;;;5083151;28;20208;-69
2022/08/26 07:08:36;;;;;;;;;;;20.30;99.90;;;;;;5083571;28;19987;-69
2022/08/26 07:11:04;;;;;;;;;;;20.40;99.90;;;;;;5083545;28;20019;-70
2022/08/26 07:13:30;;;;;;;;;;;20.40;99.90;;;;;;5082689;28;19920;-70
2022/08/26 07:15:57;;;;;;;;;;;20.50;99.90;;;;;;5083411;28;20172;-70
2022/08/26 07:18:24;;;;;;;;;;;20.60;99.90;;;;;;5074858;28;19948;-70
2022/08/26 07:20:52;;;;;;;;;;;20.80;99.90;;;;;;5063269;28;19928;-70
2022/08/26 07:23:19;;;;;;;;;;;20.90;99.90;;;;;;5062736;28;19995;-70
2022/08/26 07:25:45;;;;;;;;;;;20.90;99.90;;;;;;5063278;28;19921;-70
2022/08/26 07:28:12;;;;;;;;;;;21.00;99.90;;;;;;5063089;28;19920;-70
2022/08/26 07:30:39;;;;;;;;;;;21.20;99.90;;;;;;5063125;28;19970;-70
2022/08/26 07:33:06;;;;;;;;;;;21.30;99.90;;;;;;5062216;28;19959;-70
2022/08/26 07:35:33;;;;;;;;;;;21.40;99.90;;;;;;5063165;28;19921;-70
2022/08/26 07:38:01;;;;;;;;;;;21.60;99.90;;;;;;5062930;28;19921;-70
2022/08/26 07:40:28;;;;;;;;;;;21.70;99.90;;;;;;5065009;28;19983;-70
2022/08/26 07:42:55;;;;;;;;;;;21.80;99.90;;;;;;5066975;28;19921;-69
2022/08/26 07:45:22;;;;;;;;;;;21.90;99.90;;;;;;5074684;28;19921;-70
2022/08/26 07:47:49;;;;;;;;;;;22.10;99.90;;;;;;5085551;28;20243;-70
2022/08/26 07:50:15;;;;;;;;;;;22.20;99.90;;;;;;5087264;28;20162;-70
2022/08/26 07:52:42;;;;;;;;;;;22.40;99.90;;;;;;5086599;28;19963;-70
2022/08/26 07:55:10;;;;;;;;;;;22.50;99.90;;;;;;5086896;28;19920;-70
2022/08/26 07:57:37;;;;;;;;;;;22.70;99.90;;;;;;5086971;28;19921;-70
2022/08/26 08:00:05;;;;;;;;;;;22.80;99.90;;;;;;5086770;28;19984;-70
2022/08/26 08:02:32;;;;;;;;;;;22.90;99.90;;;;;;5086928;28;19966;-70
2022/08/26 08:04:58;;;;;;;;;;;23.10;99.90;;;;;;5086237;28;19921;-70
2022/08/26 08:07:25;;;;;;;;;;;23.20;99.90;;;;;;5086727;28;19920;-70
2022/08/26 08:09:52;;;;;;;;;;;23.30;99.90;;;;;;5086999;28;19920;-70
2022/08/26 08:12:20;;;;;;;;;;;23.30;99.90;;;;;;5086724;28;19927;-70
2022/08/26 08:14:47;;;;;;;;;;;23.40;99.90;;;;;;5085748;28;19934;-70
2022/08/26 08:17:14;;;;;;;;;;;23.50;99.90;;;;;;5086724;28;19920;-70
2022/08/26 08:19:41;;;;;;;;;;;23.40;99.90;;;;;;5075307;28;19959;-70
2022/08/26 08:22:08;;;;;;;;;;;23.50;99.90;;;;;;5066485;28;20186;-70
2022/08/26 08:24:35;;;;;;;;;;;23.60;99.90;;;;;;5065558;28;19988;-70
2022/08/26 08:27:02;;;;;;;;;;;23.60;99.90;;;;;;5066595;28;20046;-70
2022/08/26 08:29:30;;;;;;;;;;;23.70;99.90;;;;;;5066013;28;19951;-70
2022/08/26 08:31:57;;;;;;;;;;;23.80;99.90;;;;;;5065537;28;20250;-70
2022/08/26 08:34:25;;;;;;;;;;;23.80;99.90;;;;;;5065403;28;19956;-70
2022/08/26 08:36:51;;;;;;;;;;;24.00;99.90;;;;;;5066035;28;19984;-70
2022/08/26 08:39:18;;;;;;;;;;;24.10;99.90;;;;;;5066028;28;19964;-69
2022/08/26 08:41:53;;;;;;;;;;;24.20;99.90;;;;;;5066617;28;19992;-70
2022/08/26 08:44:20;;;;;;;;;;;24.20;99.90;;;;;;5065368;28;19967;-70
2022/08/26 08:46:50;;;;;;;;;;;24.30;99.90;;;;;;5075189;28;19959;-70
2022/08/26 08:49:17;;;;;;;;;;;24.30;99.90;;;;;;5085932;28;19921;-70
2022/08/26 08:51:48;;;;;;;;;;;24.50;99.90;;;;;;5084710;28;19974;-70
2022/08/26 08:54:14;;;;;;;;;;;24.50;99.90;;;;;;5085217;28;19983;-70
2022/08/26 08:56:44;;;;;;;;;;;24.60;99.90;;;;;;5085961;28;19920;-70
2022/08/26 08:59:13;;;;;;;;;;;24.60;99.90;;;;;;5085812;28;20196;-70
2022/08/26 09:01:48;;;;;;;;;;;24.70;99.90;;;;;;5085763;28;19929;-70
2022/08/26 09:04:26;;;;;;;;;;;24.80;99.90;;;;;;5085077;28;19979;-70
2022/08/26 09:06:54;;;;;;;;;;;24.90;99.90;;;;;;5085404;28;19984;-70
2022/08/26 09:09:22;;;;;;;;;;;25.00;99.90;;;;;;5085643;28;19956;-70
2022/08/26 09:11:49;;;;;;;;;;;25.10;99.90;;;;;;5085554;28;20227;-70
2022/08/26 09:14:15;;;;;;;;;;;25.20;99.90;;;;;;5085079;28;20188;-69
2022/08/26 09:16:46;;;;;;;;;;;25.30;99.90;;;;;;5085607;28;20120;-68
2022/08/26 09:19:17;;;;;;;;;;;25.30;99.90;;;;;;5085970;28;20232;-68
2022/08/26 09:21:46;;;;;;;;;;;25.40;99.90;;;;;;5085425;28;20373;-68
2022/08/26 09:24:12;;;;;;;;;;;25.50;99.90;;;;;;5084875;28;19926;-68
2022/08/26 09:26:44;;;;;;;;;;;25.50;99.90;;;;;;5085310;28;19927;-68
2022/08/26 09:29:18;;;;;;;;;;;25.60;99.90;;;;;;5085266;28;19999;-68
2022/08/26 09:31:45;;;;;;;;;;;25.60;99.90;;;;;;5085062;28;20228;-68
2022/08/26 09:34:13;;;;;;;;;;;25.60;99.90;;;;;;5084629;28;19920;-69
2022/08/26 09:36:42;;;;;;;;;;;25.60;99.90;;;;;;5085094;28;19948;-68
2022/08/26 09:39:27;;;;;;;;;;;25.60;99.90;;;;;;5085522;28;19921;-69
2022/08/26 09:42:01;;;;;;;;;;;25.60;99.90;;;;;;5084955;28;20230;-68
2022/08/26 09:44:28;;;;;;;;;;;25.70;99.90;;;;;;5084441;28;19992;-69
2022/08/26 09:46:56;;;;;;;;;;;25.80;99.90;;;;;;5078455;28;19920;-69
2022/08/26 09:49:25;;;;;;;;;;;25.90;99.90;;;;;;5085224;28;19942;-68
2022/08/26 09:52:03;;;;;;;;;;;26.00;99.90;;;;;;5084968;28;19921;-68
2022/08/26 09:54:31;;;;;;;;;;;26.10;99.90;;;;;;5084170;28;19920;-67
2022/08/26 09:57:10;;;;;;;;;;;26.30;99.90;;;;;;5084808;28;19987;-68
2022/08/26 09:59:36;;;;;;;;;;;26.40;99.90;;;;;;5084646;28;19920;-68
2022/08/26 10:02:16;;;;;;;;;;;26.40;99.90;;;;;;5084758;28;19962;-68
2022/08/26 10:04:49;;;;;;;;;;;26.50;99.90;;;;;;5083545;28;19928;-68
2022/08/26 10:07:33;;;;;;;;;;;26.50;99.90;;;;;;5084981;28;19920;-68
2022/08/26 10:10:03;;;;;;;;;;;26.50;99.90;;;;;;5084517;28;20262;-68
2022/08/26 10:12:32;;;;;;;;;;;26.70;99.90;;;;;;5084218;28;20269;-67
2022/08/26 10:15:02;;;;;;;;;;;26.80;99.90;;;;;;5092744;22;19988;-70
2022/08/26 10:17:31;;;;;;;;;;;27.00;99.90;;;;;;5075943;28;19921;-71
2022/08/26 10:19:59;;;;;;;;;;;27.10;99.90;;;;;;5072327;28;19928;-69
2022/08/26 10:22:27;;;;;;;;;;;27.30;99.90;;;;;;5064285;28;19941;-69
2022/08/26 10:24:57;;;;;;;;;;;27.40;99.90;;;;;;5050155;28;20212;-69
2022/08/26 10:27:31;;;;;;;;;;;27.50;99.90;;;;;;5044239;28;19948;-69
2022/08/26 10:30:01;;;;;;;;;;;27.50;99.90;;;;;;5044339;28;20123;-70
2022/08/26 10:32:34;;;;;;;;;;;27.50;99.90;;;;;;5044242;28;19984;-69
2022/08/26 10:35:01;;;;;;;;;;;27.60;99.90;;;;;;5043668;28;19929;-70
2022/08/26 10:37:33;;;;;;;;;;;27.60;99.90;;;;;;5044070;28;19928;-70
2022/08/26 10:40:02;;;;;;;;;;;27.60;99.90;;;;;;5043971;28;19992;-69
2022/08/26 10:42:34;;;;;;;;;;;27.70;99.90;;;;;;5042985;28;19921;-69
2022/08/26 10:45:05;;;;;;;;;;;27.80;99.90;;;;;;5043186;28;19935;-69
2022/08/26 10:47:34;;;;;;;;;;;28.00;99.90;;;;;;5071038;28;19983;-70
2022/08/26 10:50:02;;;;;;;;;;;28.10;99.90;;;;;;5063584;28;20153;-69
2022/08/26 10:52:34;;;;;;;;;;;28.30;99.90;;;;;;5062563;28;19921;-70
2022/08/26 10:55:02;;;;;;;;;;;28.40;99.90;;;;;;5062040;28;20003;-70
2022/08/26 10:57:37;;;;;;;;;;;28.60;99.90;;;;;;5063058;28;20093;-69
2022/08/26 11:01:40;;;;;;;;;;;28.80;99.90;;;;;;5063534;28;20187;-69
2022/08/26 11:02:59;;;;;;;;;;;29.00;99.90;;;;;;5060417;28;19962;-70
2022/08/26 11:05:25;;;;;;;;;;;29.00;99.90;;;;;;5063508;28;19927;-69
2022/08/26 11:07:54;;;;;;;;;;;29.10;99.90;;;;;;5063640;28;19964;-69
2022/08/26 11:10:45;;;;;;;;;;;29.20;99.90;;;;;;5063605;28;20120;-67
2022/08/26 11:13:13;;;;;;;;;;;29.20;99.90;;;;;;5047827;28;20000;-69
2022/08/26 11:16:09;;;;;;;;;;;29.20;99.90;;;;;;5062057;28;20023;-69
2022/08/26 11:18:41;;;;;;;;;;;29.30;99.90;;;;;;5063963;28;19956;-68
2022/08/26 11:21:26;;;;;;;;;;;29.40;99.90;;;;;;5063810;28;19963;-69
2022/08/26 11:23:53;;;;;;;;;;;29.60;99.90;;;;;;5063106;28;20172;-69
2022/08/26 11:26:19;;;;;;;;;;;29.70;99.90;;;;;;5063441;28;19987;-69
2022/08/26 11:28:48;;;;;;;;;;;29.80;99.90;;;;;;5063372;28;19980;-69
2022/08/26 11:31:30;;;;;;;;;;;29.90;99.90;;;;;;5081470;28;20139;-69
2022/08/26 11:33:57;;;;;;;;;;;30.00;99.90;;;;;;5082115;28;20298;-71
2022/08/26 11:36:38;;;;;;;;;;;30.00;99.90;;;;;;5083714;28;19927;-69
2022/08/26 11:39:14;;;;;;;;;;;30.10;99.90;;;;;;5083623;28;19988;-70
2022/08/26 11:41:42;;;;;;;;;;;30.10;99.90;;;;;;5083756;28;19928;-69
2022/08/26 11:44:11;;;;;;;;;;;30.10;99.90;;;;;;5065002;28;19967;-71
2022/08/26 11:46:37;;;;;;;;;;;30.20;99.90;;;;;;5057490;28;20141;-69
2022/08/26 11:49:05;;;;;;;;;;;30.30;99.90;;;;;;5057104;28;20080;-69
2022/08/26 11:51:32;;;;;;;;;;;30.30;99.90;;;;;;5063519;28;19971;-69
2022/08/26 11:54:09;;;;;;;;;;;30.20;99.90;;;;;;5062962;28;19983;-70
2022/08/26 11:56:36;;;;;;;;;;;30.10;99.90;;;;;;5063391;28;19999;-70
2022/08/26 11:59:07;;;;;;;;;;;30.20;99.90;;;;;;5063619;28;19967;-69
2022/08/26 12:01:36;;;;;;;;;;;30.30;99.90;;;;;;5063380;28;19962;-71
2022/08/26 12:04:03;;;;;;;;;;;30.30;99.90;;;;;;5062830;28;19921;-70
2022/08/26 12:06:31;;;;;;;;;;;30.30;99.90;;;;;;5063171;28;19921;-72
2022/08/26 12:08:59;;;;;;;;;;;30.40;99.90;;;;;;5063683;28;19927;-69
2022/08/26 12:11:28;;;;;;;;;;;30.50;99.90;;;;;;5061286;28;19984;-70
2022/08/26 12:13:56;;;;;;;;;;;30.60;99.90;;;;;;5062352;28;20219;-69
2022/08/26 12:16:24;;;;;;;;;;;30.70;99.90;;;;;;5063089;28;19921;-70
2022/08/26 12:18:52;;;;;;;;;;;30.70;99.90;;;;;;5063173;28;19927;-69
2022/08/26 12:21:24;;;;;;;;;;;30.70;99.90;;;;;;5061935;28;19955;-70
2022/08/26 12:23:51;;;;;;;;;;;30.50;99.90;;;;;;5062145;28;20188;-69
2022/08/26 12:26:21;;;;;;;;;;;30.40;99.90;;;;;;5064709;28;20116;-71
2022/08/26 12:28:49;;;;;;;;;;;30.40;99.90;;;;;;5067074;28;19988;-69
2022/08/26 12:31:20;;;;;;;;;;;30.20;99.90;;;;;;5066579;28;20160;-69
2022/08/26 12:33:48;;;;;;;;;;;29.90;99.90;;;;;;5066295;28;19956;-69
2022/08/26 12:36:22;;;;;;;;;;;29.70;99.90;;;;;;5048916;28;19972;-71
2022/08/26 12:38:55;;;;;;;;;;;29.60;99.90;;;;;;5045309;28;19928;-70
2022/08/26 12:41:38;;;;;;;;;;;29.40;99.90;;;;;;5046484;28;19921;-69
2022/08/26 12:44:05;;;;;;;;;;;29.40;99.90;;;;;;5045999;28;19928;-69
2022/08/26 12:46:35;;;;;;;;;;;29.50;99.90;;;;;;5060868;28;19927;-69
2022/08/26 12:49:09;;;;;;;;;;;29.60;99.90;;;;;;5067836;28;19992;-70
2022/08/26 12:51:40;;;;;;;;;;;29.60;99.90;;;;;;5066101;28;19921;-69
2022/08/26 12:54:12;;;;;;;;;;;29.70;99.90;;;;;;5065630;28;19920;-70
2022/08/26 12:56:51;;;;;;;;;;;30.00;99.90;;;;;;5063971;28;19997;-70
2022/08/26 12:59:21;;;;;;;;;;;30.30;99.90;;;;;;5066331;28;19921;-69
2022/08/26 13:01:48;;;;;;;;;;;30.40;99.90;;;;;;5066256;28;19924;-69
2022/08/26 13:04:35;;;;;;;;;;;30.20;99.90;;;;;;5062205;28;19991;-70
2022/08/26 13:07:29;;;;;;;;;;;30.10;99.90;;;;;;5052787;28;20284;-70
2022/08/26 13:09:58;;;;;;;;;;;30.10;99.90;;;;;;5027125;28;20063;-70
2022/08/26 13:12:29;;;;;;;;;;;30.20;99.90;;;;;;5058574;28;20131;-70
2022/08/26 13:14:57;;;;;;;;;;;30.30;99.90;;;;;;5051803;28;20196;-75
2022/08/26 13:17:24;;;;;;;;;;;30.40;99.90;;;;;;5053412;28;19925;-70
2022/08/26 13:19:51;;;;;;;;;;;30.30;99.90;;;;;;5048849;28;19921;-69
2022/08/26 13:22:21;;;;;;;;;;;30.10;99.90;;;;;;5051074;28;19980;-72
2022/08/26 13:24:48;;;;;;;;;;;30.20;99.90;;;;;;5056820;28;19921;-69
2022/08/26 13:27:19;;;;;;;;;;;30.30;99.90;;;;;;5062951;28;19927;-70
2022/08/26 13:29:45;;;;;;;;;;;30.40;99.90;;;;;;5057279;28;20270;-70
2022/08/26 13:32:12;;;;;;;;;;;30.60;99.90;;;;;;5054696;28;19928;-69
2022/08/26 13:34:39;;;;;;;;;;;30.80;99.90;;;;;;5048639;28;19921;-69
2022/08/26 13:37:06;;;;;;;;;;;30.90;99.90;;;;;;5058210;28;19920;-69
2022/08/26 13:39:32;;;;;;;;;;;30.90;99.90;;;;;;5065308;28;20148;-70
2022/08/26 13:42:00;;;;;;;;;;;31.00;99.90;;;;;;5065861;28;19983;-69
2022/08/26 13:44:28;;;;;;;;;;;31.20;99.90;;;;;;5064615;28;20216;-70
2022/08/26 13:46:54;;;;;;;;;;;31.30;99.90;;;;;;5077750;28;19984;-71
2022/08/26 13:49:21;;;;;;;;;;;31.50;99.90;;;;;;5085304;28;20262;-69
2022/08/26 13:51:48;;;;;;;;;;;31.70;99.90;;;;;;5085573;28;20132;-69
2022/08/26 13:54:14;;;;;;;;;;;31.70;99.90;;;;;;5084657;28;20208;-69
2022/08/26 13:56:41;;;;;;;;;;;31.80;99.90;;;;;;5085044;28;20231;-70
2022/08/26 13:59:07;;;;;;;;;;;31.90;99.90;;;;;;5085260;28;19920;-70
2022/08/26 14:01:38;;;;;;;;;;;31.80;99.90;;;;;;5081700;28;20216;-70
2022/08/26 14:04:05;;;;;;;;;;;31.90;99.90;;;;;;5051609;28;19975;-70
2022/08/26 14:06:32;;;;;;;;;;;31.90;99.90;;;;;;5056633;28;19964;-69
2022/08/26 14:08:59;;;;;;;;;;;31.70;99.90;;;;;;5056387;28;19928;-69
2022/08/26 14:11:28;;;;;;;;;;;31.70;99.90;;;;;;5049511;28;19936;-69
2022/08/26 14:13:55;;;;;;;;;;;31.80;99.90;;;;;;5053646;28;19921;-70
2022/08/26 14:16:24;;;;;;;;;;;32.00;99.90;;;;;;5055983;28;19956;-69
2022/08/26 14:18:53;;;;;;;;;;;31.90;99.90;;;;;;5048216;28;20219;-70
2022/08/26 14:21:21;;;;;;;;;;;31.70;99.90;;;;;;5053921;28;19980;-70
2022/08/26 14:23:48;;;;;;;;;;;31.70;99.90;;;;;;5044061;28;20108;-71
2022/08/26 14:26:14;;;;;;;;;;;31.70;99.90;;;;;;5044484;28;20292;-70
2022/08/26 14:28:41;;;;;;;;;;;31.50;99.90;;;;;;5049745;28;19927;-70